createdAt,value
2017-11-14T00:00:06.065Z,0.30
2017-11-14T00:02:34.523Z,0.30
2017-11-14T00:05:02.942Z,0.30
2017-11-14T00:07:31.373Z,0.30
2017-11-14T00:10:00.025Z,0.40
2017-11-14T00:12:28.438Z,0.30
2017-11-14T00:14:56.923Z,0.30
2017-11-14T00:17:25.582Z,0.20
2017-11-14T00:19:54.813Z,0.30
2017-11-14T00:22:23.257Z,0.30
2017-11-14T00:24:51.936Z,0.20
2017-11-14T00:27:21.106Z,0.20
2017-11-14T00:29:49.539Z,0.10
2017-11-14T00:32:18.149Z,0.30
2017-11-14T00:34:46.770Z,0.20
2017-11-14T00:37:15.959Z,0.30
2017-11-14T00:39:44.873Z,0.20
2017-11-14T00:42:14.108Z,0.10
2017-11-14T00:44:42.688Z,0.10
2017-11-14T00:47:11.152Z,0.10
2017-11-14T00:49:39.676Z,0.00
2017-11-14T00:52:08.069Z,0.00
2017-11-14T00:54:36.672Z,0.10
2017-11-14T00:57:05.889Z,0.00
2017-11-14T00:59:35.094Z,0.00
2017-11-14T01:02:03.813Z,0.00
2017-11-14T01:04:32.212Z,0.00
2017-11-14T01:07:00.633Z,0.00
2017-11-14T01:09:29.172Z,-0.10
2017-11-14T01:11:57.625Z,-0.10
2017-11-14T01:14:26.053Z,-0.10
2017-11-14T01:16:55.300Z,-0.10
2017-11-14T01:19:23.718Z,-0.10
2017-11-14T01:21:52.168Z,-0.10
2017-11-14T01:24:20.698Z,-0.10
2017-11-14T01:26:49.878Z,-0.30
2017-11-14T01:29:18.289Z,-0.30
2017-11-14T01:31:47.154Z,-0.30
2017-11-14T01:34:16.611Z,-0.40
2017-11-14T01:36:45.318Z,-0.40
2017-11-14T01:39:14.099Z,-0.30
2017-11-14T01:41:42.525Z,-0.30
2017-11-14T01:44:11.739Z,-0.40
2017-11-14T01:46:40.533Z,-0.40
2017-11-14T01:49:08.974Z,-0.40
2017-11-14T01:51:37.387Z,-0.30
2017-11-14T01:54:05.859Z,-0.20
2017-11-14T01:56:35.060Z,-0.30
2017-11-14T01:59:04.579Z,-0.20
2017-11-14T02:01:33.104Z,-0.30
2017-11-14T02:04:01.546Z,-0.30
2017-11-14T02:06:30.019Z,-0.40
2017-11-14T02:08:58.642Z,-0.40
2017-11-14T02:11:27.087Z,-0.30
2017-11-14T02:13:55.861Z,-0.30
2017-11-14T02:16:24.355Z,-0.40
2017-11-14T02:18:52.853Z,-0.30
2017-11-14T02:21:21.507Z,-0.30
2017-11-14T02:23:50.975Z,-0.30
2017-11-14T02:26:19.503Z,-0.30
2017-11-14T02:28:47.962Z,-0.20
2017-11-14T02:31:17.236Z,-0.60
2017-11-14T02:33:45.717Z,-0.60
2017-11-14T02:36:14.213Z,-0.50
2017-11-14T02:38:42.927Z,-0.40
2017-11-14T02:41:11.386Z,-0.30
2017-11-14T02:43:40.616Z,-0.10
2017-11-14T02:46:09.114Z,-0.20
2017-11-14T02:48:37.574Z,-0.20
2017-11-14T02:51:06.031Z,-0.20
2017-11-14T02:53:34.705Z,-0.20
2017-11-14T02:56:03.162Z,-0.20
2017-11-14T02:58:31.592Z,-0.30
2017-11-14T03:01:00.436Z,-0.40
2017-11-14T03:03:28.863Z,-0.40
2017-11-14T03:05:57.328Z,-0.50
2017-11-14T03:08:26.685Z,-0.50
2017-11-14T03:10:55.139Z,-0.50
2017-11-14T03:13:23.795Z,-0.40
2017-11-14T03:15:53.346Z,-0.40
2017-11-14T03:18:21.836Z,-0.40
2017-11-14T03:20:50.245Z,-0.40
2017-11-14T03:23:18.711Z,-0.30
2017-11-14T03:25:47.216Z,-0.20
2017-11-14T03:28:16.425Z,-0.20
2017-11-14T03:30:45.833Z,-0.20
2017-11-14T03:33:14.290Z,-0.20
2017-11-14T03:35:43.489Z,-0.20
2017-11-14T03:38:13.111Z,-0.20
2017-11-14T03:40:42.514Z,-0.10
2017-11-14T03:43:11.691Z,-0.10
2017-11-14T03:45:40.186Z,-0.10
2017-11-14T03:48:09.431Z,0.10
2017-11-14T03:50:37.920Z,0.10
2017-11-14T03:53:06.446Z,0.00
2017-11-14T03:55:34.871Z,0.10
2017-11-14T03:58:03.297Z,0.10
2017-11-14T04:00:31.805Z,0.10
2017-11-14T04:03:00.529Z,0.20
2017-11-14T04:05:28.975Z,0.30
2017-11-14T04:07:58.376Z,0.20
2017-11-14T04:10:26.845Z,0.20
2017-11-14T04:12:56.016Z,0.20
2017-11-14T04:15:24.474Z,0.20
2017-11-14T04:17:52.885Z,0.30
2017-11-14T04:20:21.309Z,0.40
2017-11-14T04:22:50.059Z,0.30
2017-11-14T04:25:19.237Z,0.20
2017-11-14T04:27:47.691Z,0.20
2017-11-14T04:30:16.127Z,0.20
2017-11-14T04:32:45.330Z,0.20
2017-11-14T04:35:13.769Z,0.20
2017-11-14T04:37:42.499Z,0.20
2017-11-14T04:40:11.700Z,0.30
2017-11-14T04:42:41.161Z,0.30
2017-11-14T04:45:09.870Z,0.20
2017-11-14T04:47:38.260Z,0.30
2017-11-14T04:50:07.428Z,0.20
2017-11-14T04:52:36.431Z,0.20
2017-11-14T04:55:04.845Z,0.10
2017-11-14T04:57:33.245Z,0.10
2017-11-14T05:00:01.898Z,0.10
2017-11-14T05:02:31.058Z,0.10
2017-11-14T05:04:59.489Z,0.10
2017-11-14T05:07:28.076Z,0.10
2017-11-14T05:09:56.465Z,0.20
2017-11-14T05:12:24.921Z,0.20
2017-11-14T05:14:53.379Z,0.20
2017-11-14T05:17:21.992Z,0.20
2017-11-14T05:19:50.428Z,0.10
2017-11-14T05:22:19.018Z,0.10
2017-11-14T05:24:47.430Z,0.20
2017-11-14T05:27:15.859Z,0.10
2017-11-14T05:29:44.507Z,0.20
2017-11-14T05:32:13.028Z,0.20
2017-11-14T05:34:41.421Z,0.10
2017-11-14T05:37:09.991Z,0.10
2017-11-14T05:39:38.415Z,0.20
2017-11-14T05:42:07.798Z,0.40
2017-11-14T05:44:36.434Z,0.30
2017-11-14T05:47:04.839Z,0.40
2017-11-14T05:49:33.265Z,0.40
2017-11-14T05:52:01.749Z,0.30
2017-11-14T05:54:30.949Z,0.20
2017-11-14T05:56:59.356Z,0.20
2017-11-14T05:59:27.803Z,0.20
2017-11-14T06:01:56.286Z,0.20
2017-11-14T06:04:24.738Z,0.10
2017-11-14T06:06:53.469Z,0.20
2017-11-14T06:09:21.872Z,0.20
2017-11-14T06:11:50.270Z,0.20
2017-11-14T06:14:18.986Z,0.20
2017-11-14T06:16:48.148Z,0.20
2017-11-14T06:19:16.584Z,0.20
2017-11-14T06:21:45.057Z,0.20
2017-11-14T06:24:13.463Z,0.30
2017-11-14T06:26:41.893Z,0.20
2017-11-14T06:29:10.693Z,0.20
2017-11-14T06:31:40.216Z,0.30
2017-11-14T06:34:08.708Z,0.30
2017-11-14T06:36:37.246Z,0.30
2017-11-14T06:39:07.212Z,0.20
2017-11-14T06:41:35.625Z,0.20
2017-11-14T06:44:04.354Z,0.30
2017-11-14T06:46:32.982Z,0.30
2017-11-14T06:49:01.452Z,0.30
2017-11-14T06:51:30.060Z,0.30
2017-11-14T06:53:58.493Z,0.30
2017-11-14T06:56:26.982Z,0.40
2017-11-14T06:58:55.425Z,0.30
2017-11-14T07:01:25.493Z,0.30
2017-11-14T07:03:54.921Z,0.30
2017-11-14T07:06:23.590Z,0.30
2017-11-14T07:08:52.059Z,0.30
2017-11-14T07:11:20.522Z,0.30
2017-11-14T07:13:49.159Z,0.50
2017-11-14T07:16:17.569Z,0.30
2017-11-14T07:18:46.747Z,0.40
2017-11-14T07:21:15.869Z,0.40
2017-11-14T07:23:44.317Z,0.30
2017-11-14T07:26:12.762Z,0.30
2017-11-14T07:28:41.229Z,0.40
2017-11-14T07:31:09.693Z,0.40
2017-11-14T07:33:38.153Z,0.30
2017-11-14T07:36:07.530Z,0.40
2017-11-14T07:38:36.003Z,0.30
2017-11-14T07:41:04.436Z,0.40
2017-11-14T07:43:33.037Z,0.40
2017-11-14T07:46:01.889Z,0.50
2017-11-14T07:48:31.289Z,0.60
2017-11-14T07:51:00.513Z,0.60
2017-11-14T07:53:28.916Z,0.60
2017-11-14T07:55:57.335Z,0.40
2017-11-14T07:58:25.906Z,0.50
2017-11-14T08:00:54.350Z,0.40
2017-11-14T08:03:22.805Z,0.40
2017-11-14T08:05:52.441Z,0.40
2017-11-14T08:08:20.834Z,0.40
2017-11-14T08:10:49.494Z,0.50
2017-11-14T08:13:18.164Z,0.70
2017-11-14T08:15:46.621Z,0.70
2017-11-14T08:18:15.032Z,0.80
2017-11-14T08:20:43.892Z,0.70
2017-11-14T08:23:12.335Z,0.70
2017-11-14T08:25:40.739Z,0.80
2017-11-14T08:28:09.198Z,0.80
2017-11-14T08:30:38.518Z,0.70
2017-11-14T08:33:06.922Z,0.70
2017-11-14T08:35:35.756Z,0.90
2017-11-14T08:38:04.200Z,1.10
2017-11-14T08:40:33.445Z,1.00
2017-11-14T08:43:02.188Z,1.00
2017-11-14T08:45:31.433Z,1.10
2017-11-14T08:48:00.776Z,1.30
2017-11-14T08:50:30.372Z,1.20
2017-11-14T08:52:58.859Z,1.20
2017-11-14T08:55:28.086Z,1.60
2017-11-14T08:57:57.492Z,1.60
2017-11-14T09:00:26.046Z,1.70
2017-11-14T09:02:54.556Z,1.70
2017-11-14T09:05:23.293Z,1.80
2017-11-14T09:07:51.877Z,1.80
2017-11-14T09:10:20.311Z,1.70
2017-11-14T09:12:49.087Z,2.00
2017-11-14T09:15:17.552Z,2.10
2017-11-14T09:17:46.782Z,2.00
2017-11-14T09:20:15.655Z,1.90
2017-11-14T09:22:44.863Z,2.30
2017-11-14T09:25:13.593Z,2.30
2017-11-14T09:27:42.285Z,2.30
2017-11-14T09:30:10.811Z,2.20
2017-11-14T09:32:39.322Z,2.20
2017-11-14T09:35:08.185Z,2.20
2017-11-14T09:37:37.544Z,2.10
2017-11-14T09:40:06.045Z,2.30
2017-11-14T09:42:35.342Z,2.20
2017-11-14T09:45:04.681Z,2.20
2017-11-14T09:47:33.146Z,2.20
2017-11-14T09:50:02.364Z,2.30
2017-11-14T09:52:30.988Z,2.60
2017-11-14T09:54:59.567Z,2.70
2017-11-14T09:57:29.119Z,3.00
2017-11-14T09:59:57.714Z,2.80
2017-11-14T10:02:26.287Z,3.30
2017-11-14T10:04:55.642Z,3.70
2017-11-14T10:07:24.186Z,3.70
2017-11-14T10:09:53.463Z,3.80
2017-11-14T10:12:22.976Z,3.70
2017-11-14T10:14:51.579Z,3.70
2017-11-14T10:17:20.102Z,3.70
2017-11-14T10:19:49.377Z,3.80
2017-11-14T10:22:18.698Z,3.70
2017-11-14T10:24:48.151Z,3.40
2017-11-14T10:27:18.344Z,3.40
2017-11-14T10:29:46.840Z,3.50
2017-11-14T10:32:16.149Z,3.70
2017-11-14T10:34:46.436Z,3.70
2017-11-14T10:37:15.114Z,3.80
2017-11-14T10:39:43.694Z,3.80
2017-11-14T10:42:13.051Z,4.00
2017-11-14T10:44:41.706Z,4.30
2017-11-14T10:47:11.044Z,4.40
2017-11-14T10:49:39.857Z,4.40
2017-11-14T10:52:08.423Z,4.50
2017-11-14T10:54:37.084Z,4.40
2017-11-14T10:57:05.863Z,4.50
2017-11-14T10:59:36.178Z,4.90
2017-11-14T11:02:04.842Z,4.80
2017-11-14T11:04:33.570Z,4.90
2017-11-14T11:07:04.044Z,4.80
2017-11-14T11:09:32.658Z,4.90
2017-11-14T11:12:03.005Z,4.80
2017-11-14T11:14:31.548Z,4.70
2017-11-14T11:17:00.157Z,4.80
2017-11-14T11:19:28.865Z,5.20
2017-11-14T11:21:58.332Z,5.50
2017-11-14T11:24:26.839Z,6.10
2017-11-14T11:26:56.551Z,5.80
2017-11-14T11:29:25.248Z,5.70
2017-11-14T11:31:54.004Z,5.90
2017-11-14T11:34:24.776Z,5.80
2017-11-14T11:36:53.745Z,5.80
2017-11-14T11:39:23.004Z,5.60
2017-11-14T11:41:51.903Z,5.60
2017-11-14T11:44:20.433Z,5.70
2017-11-14T11:46:50.195Z,5.70
2017-11-14T11:49:19.523Z,6.00
2017-11-14T11:51:48.094Z,5.90
2017-11-14T11:54:17.117Z,5.90
2017-11-14T11:56:46.419Z,5.90
2017-11-14T11:59:15.177Z,5.80
2017-11-14T12:01:49.312Z,5.90
2017-11-14T12:04:17.811Z,5.80
2017-11-14T12:06:47.409Z,5.80
2017-11-14T12:09:19.449Z,5.80
2017-11-14T12:11:48.801Z,6.00
2017-11-14T12:14:18.195Z,6.10
2017-11-14T12:16:48.115Z,5.90
2017-11-14T12:19:16.730Z,5.90
2017-11-14T12:21:46.226Z,6.20
2017-11-14T12:24:16.398Z,6.10
2017-11-14T12:26:47.202Z,6.30
2017-11-14T12:29:15.779Z,6.20
2017-11-14T12:31:47.071Z,6.30
2017-11-14T12:34:15.569Z,6.50
2017-11-14T12:36:45.076Z,6.90
2017-11-14T12:39:15.387Z,7.50
2017-11-14T12:41:44.780Z,7.60
2017-11-14T12:44:13.732Z,7.50
2017-11-14T12:46:42.414Z,7.50
2017-11-14T12:49:11.715Z,7.30
2017-11-14T12:51:40.313Z,6.90
2017-11-14T12:54:09.654Z,6.70
2017-11-14T12:56:39.908Z,6.60
2017-11-14T12:59:11.681Z,6.50
2017-11-14T13:01:40.848Z,6.60
2017-11-14T13:04:10.179Z,6.60
2017-11-14T13:06:40.171Z,6.50
2017-11-14T13:09:08.663Z,6.50
2017-11-14T13:11:37.095Z,6.50
2017-11-14T13:14:06.599Z,6.50
2017-11-14T13:16:35.111Z,6.40
2017-11-14T13:19:06.604Z,6.90
2017-11-14T13:21:37.278Z,6.80
2017-11-14T13:24:06.765Z,6.90
2017-11-14T13:26:35.481Z,6.90
2017-11-14T13:29:05.646Z,6.80
2017-11-14T13:31:34.072Z,6.70
2017-11-14T13:34:03.524Z,6.70
2017-11-14T13:36:32.829Z,6.60
2017-11-14T13:39:01.255Z,6.60
2017-11-14T13:41:29.822Z,6.60
2017-11-14T13:43:59.386Z,6.70
2017-11-14T13:46:28.201Z,6.70
2017-11-14T13:48:58.305Z,6.70
2017-11-14T13:51:28.192Z,6.70
2017-11-14T13:53:56.613Z,6.70
2017-11-14T13:56:25.915Z,6.70
2017-11-14T13:58:54.493Z,6.70
2017-11-14T14:01:26.023Z,6.60
2017-11-14T14:03:54.427Z,6.50
2017-11-14T14:06:24.731Z,6.70
2017-11-14T14:08:55.907Z,6.80
2017-11-14T14:11:26.433Z,6.80
2017-11-14T14:13:55.637Z,6.80
2017-11-14T14:16:24.938Z,6.70
2017-11-14T14:18:54.668Z,6.80
2017-11-14T14:21:24.216Z,6.80
2017-11-14T14:23:52.699Z,6.70
2017-11-14T14:26:22.205Z,6.80
2017-11-14T14:28:53.344Z,6.90
2017-11-14T14:31:21.750Z,6.90
2017-11-14T14:33:52.919Z,6.70
2017-11-14T14:36:22.671Z,6.80
2017-11-14T14:38:51.254Z,6.70
2017-11-14T14:41:20.618Z,6.70
2017-11-14T14:43:49.109Z,6.70
2017-11-14T14:46:17.525Z,6.70
2017-11-14T14:48:46.132Z,6.60
2017-11-14T14:51:15.512Z,6.60
2017-11-14T14:53:43.954Z,6.50
2017-11-14T14:56:13.903Z,6.50
2017-11-14T14:58:43.268Z,6.40
2017-11-14T15:01:13.096Z,6.40
2017-11-14T15:03:42.116Z,6.40
2017-11-14T15:06:11.307Z,6.40
2017-11-14T15:08:41.778Z,6.30
2017-11-14T15:11:10.867Z,6.30
2017-11-14T15:13:40.097Z,6.20
2017-11-14T15:16:08.574Z,6.10
2017-11-14T15:18:38.265Z,6.10
2017-11-14T15:21:09.131Z,6.10
2017-11-14T15:23:38.215Z,6.00
2017-11-14T15:26:10.572Z,6.00
2017-11-14T15:28:40.211Z,6.00
2017-11-14T15:31:10.786Z,5.90
2017-11-14T15:33:40.181Z,5.90
2017-11-14T15:36:13.352Z,5.80
2017-11-14T15:38:54.756Z,5.80
2017-11-14T15:41:27.267Z,5.70
2017-11-14T15:43:56.080Z,5.70
2017-11-14T15:46:27.119Z,5.70
2017-11-14T15:48:55.529Z,5.70
2017-11-14T15:51:23.944Z,5.70
2017-11-14T15:53:52.435Z,5.70
2017-11-14T15:56:22.626Z,5.60
2017-11-14T15:58:54.036Z,5.60
2017-11-14T16:01:22.727Z,5.60
2017-11-14T16:03:53.541Z,5.60
2017-11-14T16:06:24.330Z,5.60
2017-11-14T16:08:54.291Z,5.60
2017-11-14T16:11:24.346Z,5.60
2017-11-14T16:13:52.821Z,5.60
2017-11-14T16:16:23.160Z,5.60
2017-11-14T16:18:51.586Z,5.60
2017-11-14T16:21:20.718Z,5.50
2017-11-14T16:23:49.369Z,5.50
2017-11-14T16:26:18.949Z,5.40
2017-11-14T16:28:48.126Z,5.30
2017-11-14T16:31:17.156Z,5.30
2017-11-14T16:33:47.826Z,5.30
2017-11-14T16:36:17.261Z,5.30
2017-11-14T16:38:49.388Z,5.20
2017-11-14T16:41:19.175Z,5.10
2017-11-14T16:43:47.693Z,5.10
2017-11-14T16:46:17.439Z,5.10
2017-11-14T16:48:46.676Z,5.10
2017-11-14T16:51:15.134Z,5.10
2017-11-14T16:53:43.686Z,5.10
2017-11-14T16:56:12.157Z,5.10
2017-11-14T16:58:40.615Z,5.10
2017-11-14T17:01:09.172Z,5.00
2017-11-14T17:03:37.634Z,5.10
2017-11-14T17:06:07.689Z,5.10
2017-11-14T17:08:36.326Z,5.10
2017-11-14T17:11:05.628Z,5.10
2017-11-14T17:13:34.841Z,5.10
2017-11-14T17:16:04.243Z,5.10
2017-11-14T17:18:34.210Z,5.10
2017-11-14T17:21:02.685Z,5.00
2017-11-14T17:23:31.195Z,5.10
2017-11-14T17:25:59.596Z,5.10
2017-11-14T17:28:28.768Z,5.10
2017-11-14T17:30:57.303Z,5.10
2017-11-14T17:33:26.046Z,5.10
2017-11-14T17:35:55.309Z,5.10
2017-11-14T17:38:24.497Z,5.10
2017-11-14T17:40:52.940Z,5.10
2017-11-14T17:43:22.109Z,5.20
2017-11-14T17:45:50.877Z,5.20
2017-11-14T17:48:19.300Z,5.20
2017-11-14T17:50:48.506Z,5.20
2017-11-14T17:53:17.903Z,5.10
2017-11-14T17:55:47.093Z,5.10
2017-11-14T17:58:16.342Z,5.10
2017-11-14T18:00:44.818Z,5.10
2017-11-14T18:03:13.203Z,5.10
2017-11-14T18:05:41.629Z,5.10
2017-11-14T18:08:10.450Z,5.10
2017-11-14T18:10:38.875Z,5.10
2017-11-14T18:13:07.280Z,5.10
2017-11-14T18:15:36.783Z,5.00
2017-11-14T18:18:05.994Z,5.00
2017-11-14T18:20:34.436Z,5.00
2017-11-14T18:23:03.840Z,5.10
2017-11-14T18:25:32.336Z,5.10
2017-11-14T18:28:00.778Z,5.10
2017-11-14T18:30:29.242Z,5.10
2017-11-14T18:32:57.774Z,5.20
2017-11-14T18:35:26.218Z,5.20
2017-11-14T18:37:55.509Z,5.30
2017-11-14T18:40:23.941Z,5.30
2017-11-14T18:42:52.349Z,5.40
2017-11-14T18:45:21.134Z,5.40
2017-11-14T18:47:49.802Z,5.50
2017-11-14T18:50:18.283Z,5.50
2017-11-14T18:52:46.795Z,5.60
2017-11-14T18:55:15.260Z,5.60
2017-11-14T18:57:43.758Z,5.60
2017-11-14T19:00:12.221Z,5.60
2017-11-14T19:02:40.650Z,5.70
2017-11-14T19:05:09.195Z,5.70
2017-11-14T19:07:38.450Z,5.70
2017-11-14T19:10:07.069Z,5.70
2017-11-14T19:12:36.479Z,5.70
2017-11-14T19:15:05.987Z,5.60
2017-11-14T19:17:34.423Z,5.70
2017-11-14T19:20:03.654Z,5.70
2017-11-14T19:22:33.200Z,5.70
2017-11-14T19:25:01.633Z,5.70
2017-11-14T19:27:30.841Z,5.70
2017-11-14T19:29:59.900Z,5.70
2017-11-14T19:32:28.312Z,5.70
2017-11-14T19:34:56.982Z,5.70
2017-11-14T19:37:25.699Z,5.80
2017-11-14T19:39:54.172Z,5.70
2017-11-14T19:42:22.652Z,5.80
2017-11-14T19:44:51.130Z,5.80
2017-11-14T19:47:20.322Z,5.80
2017-11-14T19:49:49.541Z,5.90
2017-11-14T19:52:18.839Z,5.90
2017-11-14T19:54:47.304Z,5.90
2017-11-14T19:57:15.774Z,5.90
2017-11-14T19:59:44.505Z,5.90
2017-11-14T20:02:13.689Z,5.90
2017-11-14T20:04:42.113Z,5.90
2017-11-14T20:07:10.592Z,5.90
2017-11-14T20:09:39.111Z,5.90
2017-11-14T20:12:09.333Z,5.90
2017-11-14T20:14:38.028Z,5.80
2017-11-14T20:17:06.590Z,5.90
2017-11-14T20:19:35.804Z,5.80
2017-11-14T20:22:05.419Z,5.90
2017-11-14T20:24:34.296Z,5.80
2017-11-14T20:27:03.723Z,5.80
2017-11-14T20:29:32.333Z,5.80
2017-11-14T20:32:00.774Z,5.80
2017-11-14T20:34:29.218Z,5.80
2017-11-14T20:36:57.708Z,5.80
2017-11-14T20:39:26.125Z,5.80
2017-11-14T20:41:55.466Z,5.80
2017-11-14T20:44:23.912Z,5.80
2017-11-14T20:46:53.499Z,5.80
2017-11-14T20:49:21.985Z,5.80
2017-11-14T20:51:50.700Z,5.80
2017-11-14T20:54:19.156Z,5.80
2017-11-14T20:56:47.570Z,5.90
2017-11-14T20:59:16.944Z,5.90
2017-11-14T21:01:45.334Z,5.80
2017-11-14T21:04:14.239Z,5.80
2017-11-14T21:06:43.332Z,5.90
2017-11-14T21:09:11.738Z,5.90
2017-11-14T21:11:40.193Z,5.90
2017-11-14T21:14:09.026Z,5.90
2017-11-14T21:16:38.228Z,5.90
2017-11-14T21:19:07.411Z,5.90
2017-11-14T21:21:35.946Z,5.90
2017-11-14T21:24:04.418Z,5.90
2017-11-14T21:26:32.853Z,5.90
2017-11-14T21:29:01.622Z,5.90
2017-11-14T21:31:30.084Z,5.90
2017-11-14T21:33:58.517Z,5.90
2017-11-14T21:36:27.894Z,5.90
2017-11-14T21:38:56.318Z,5.80
2017-11-14T21:41:25.519Z,5.90
2017-11-14T21:43:54.031Z,5.80
2017-11-14T21:46:22.454Z,5.80
2017-11-14T21:48:50.889Z,5.80
2017-11-14T21:51:19.508Z,5.80
2017-11-14T21:53:48.815Z,5.80
2017-11-14T21:56:18.049Z,5.80
2017-11-14T21:58:46.511Z,5.80
2017-11-14T22:01:15.743Z,5.80
2017-11-14T22:03:44.155Z,5.80
2017-11-14T22:06:12.648Z,5.80
2017-11-14T22:08:41.846Z,5.80
2017-11-14T22:11:11.082Z,5.80
2017-11-14T22:13:39.545Z,5.80
2017-11-14T22:16:08.919Z,5.80
2017-11-14T22:18:37.345Z,5.80
2017-11-14T22:21:05.996Z,5.80
2017-11-14T22:23:35.206Z,5.80
2017-11-14T22:26:04.535Z,5.80
2017-11-14T22:28:33.206Z,5.80
2017-11-14T22:31:01.668Z,5.80
2017-11-14T22:33:30.079Z,5.80
2017-11-14T22:35:58.543Z,5.80
2017-11-14T22:38:26.968Z,5.80
2017-11-14T22:40:55.386Z,5.80
2017-11-14T22:43:25.076Z,5.70
2017-11-14T22:45:53.458Z,5.70
2017-11-14T22:48:21.902Z,5.80
2017-11-14T22:50:50.415Z,5.80
2017-11-14T22:53:18.827Z,5.80
2017-11-14T22:55:48.066Z,5.70
2017-11-14T22:58:16.665Z,5.70
2017-11-14T23:00:45.156Z,5.80
2017-11-14T23:03:13.559Z,5.80
2017-11-14T23:05:42.822Z,5.70
2017-11-14T23:08:12.330Z,5.80
2017-11-14T23:10:40.760Z,5.70
2017-11-14T23:13:09.231Z,5.70
2017-11-14T23:15:38.382Z,5.70
2017-11-14T23:18:07.835Z,5.70
2017-11-14T23:20:37.412Z,5.70
2017-11-14T23:23:05.906Z,5.70
2017-11-14T23:25:35.109Z,5.70
2017-11-14T23:28:04.745Z,5.70
2017-11-14T23:30:33.180Z,5.70
2017-11-14T23:33:01.892Z,5.70
2017-11-14T23:35:31.127Z,5.70
2017-11-14T23:37:59.578Z,5.70
2017-11-14T23:40:28.013Z,5.70
2017-11-14T23:42:56.512Z,5.70
2017-11-14T23:45:24.975Z,5.60
2017-11-14T23:47:53.382Z,5.60
2017-11-14T23:50:22.958Z,5.60
2017-11-14T23:52:51.377Z,5.60
2017-11-14T23:55:19.800Z,5.60
2017-11-14T23:57:48.590Z,5.60
